Time;durP1;ratioP1;P1;durP2;ratioP2;P2;SDS_P1;SDS_P2;PMS_P1;PMS_P2;Temp;Humidity;BMP_temperature;BMP_pressure;BME280_temperature;BME280_humidity;BME280_pressure;Samples;Min_cycle;Max_cycle;Signal;HPM_P1;HPM_P2
2022/07/13 00:02:00;;;;;;;1.85;0.85;;;;;;;17.18;54.42;96403.88;5096216;28;20192;-81
2022/07/13 00:04:25;;;;;;;0.70;0.70;;;;;;;17.21;54.55;96400.91;5075312;28;20261;-81
2022/07/13 00:06:50;;;;;;;0.80;0.65;;;;;;;17.22;54.36;96399.91;5078603;28;20192;-81
2022/07/13 00:09:16;;;;;;;1.05;0.90;;;;;;;17.20;54.24;96404.50;5093929;28;20591;-82
2022/07/13 00:11:41;;;;;;;1.70;0.90;;;;;;;17.19;54.17;96408.13;5079232;28;20272;-81
2022/07/13 00:14:06;;;;;;;0.80;0.80;;;;;;;17.17;54.12;96404.84;5096018;28;20174;-81
2022/07/13 00:16:32;;;;;;;1.05;0.75;;;;;;;17.13;54.24;96398.28;5079149;28;20446;-81
2022/07/13 00:18:57;;;;;;;2.08;0.70;;;;;;;17.13;54.57;96394.84;5079714;28;20179;-81
2022/07/13 00:21:22;;;;;;;0.93;0.60;;;;;;;17.08;54.50;96403.25;5095670;28;20223;-82
2022/07/13 00:23:48;;;;;;;1.67;0.73;;;;;;;17.06;54.84;96397.34;5075120;28;20680;-81
2022/07/13 00:26:13;;;;;;;0.60;0.60;;;;;;;17.05;55.06;96395.72;5088526;28;20194;-81
2022/07/13 00:28:38;;;;;;;0.82;0.80;;;;;;;17.00;55.35;96398.00;5062248;28;20215;-82
2022/07/13 00:31:04;;;;;;;1.67;0.80;;;;;;;16.98;55.21;96392.94;5105496;28;20226;-82
2022/07/13 00:33:29;;;;;;;1.30;0.80;;;;;;;16.94;55.54;96394.22;5097573;28;20180;-82
2022/07/13 00:35:55;;;;;;;2.17;0.80;;;;;;;16.89;55.40;96393.94;5095871;28;20193;-82
2022/07/13 00:38:20;;;;;;;1.98;0.80;;;;;;;16.86;55.85;96393.41;5096900;28;20172;-81
2022/07/13 00:40:45;;;;;;;3.05;0.68;;;;;;;16.91;55.59;96388.50;5115190;28;20203;-82
2022/07/13 00:43:10;;;;;;;0.70;0.70;;;;;;;16.96;55.32;96386.19;5096263;28;20281;-81
2022/07/13 00:45:36;;;;;;;2.10;0.77;;;;;;;16.95;55.10;96390.63;5096268;28;20187;-81
2022/07/13 00:48:01;;;;;;;0.60;0.60;;;;;;;16.93;55.35;96389.16;5114763;28;20693;-81
2022/07/13 00:50:27;;;;;;;0.60;0.60;;;;;;;16.96;55.05;96378.31;5096063;28;20215;-81
2022/07/13 00:52:52;;;;;;;0.90;0.75;;;;;;;16.93;55.07;96386.53;5079312;28;20172;-81
2022/07/13 00:55:18;;;;;;;1.02;0.70;;;;;;;16.91;55.09;96375.38;5078657;28;20179;-81
2022/07/13 00:57:43;;;;;;;0.70;0.70;;;;;;;16.94;54.99;96378.50;5078720;28;20198;-81
2022/07/13 01:00:11;;;;;;;0.73;0.63;;;;;;;17.01;54.82;96377.84;5095764;28;20695;-81
2022/07/13 01:02:37;;;;;;;0.80;0.80;;;;;;;17.00;54.94;96379.63;5078626;28;20196;-82
2022/07/13 01:05:02;;;;;;;0.90;0.68;;;;;;;17.03;54.83;96371.41;5095819;28;20180;-81
2022/07/13 01:07:30;;;;;;;2.25;0.95;;;;;;;17.04;54.87;96367.81;5096095;28;20183;-81
2022/07/13 01:09:55;;;;;;;1.08;0.75;;;;;;;17.11;54.81;96358.28;5078554;28;20222;-81
2022/07/13 01:12:20;;;;;;;1.92;0.80;;;;;;;17.13;54.85;96363.34;5096293;28;20226;-81
2022/07/13 01:14:46;;;;;;;1.42;0.65;;;;;;;17.15;54.85;96364.03;5077939;28;20179;-81
2022/07/13 01:17:12;;;;;;;0.95;0.70;;;;;;;17.20;55.24;96361.69;5078699;28;20582;-82
2022/07/13 01:19:37;;;;;;;0.95;0.80;;;;;;;17.31;54.86;96363.94;5091604;28;20267;-81
2022/07/13 01:22:03;;;;;;;0.88;0.70;;;;;;;17.37;54.82;96358.03;5095160;28;20230;-81
2022/07/13 01:24:29;;;;;;;0.80;0.77;;;;;;;17.50;54.52;96347.00;5095216;28;20264;-81
2022/07/13 01:26:55;;;;;;;0.73;0.70;;;;;;;17.58;54.53;96348.75;5095376;28;20187;-82
2022/07/13 01:29:20;;;;;;;3.00;0.88;;;;;;;17.69;54.31;96346.56;5095944;28;20180;-81
2022/07/13 01:31:45;;;;;;;0.88;0.70;;;;;;;17.70;54.36;96348.25;5078202;28;20192;-81
2022/07/13 01:34:10;;;;;;;1.10;0.70;;;;;;;17.73;54.75;96353.13;5077670;28;20183;-82
2022/07/13 01:36:36;;;;;;;0.95;0.80;;;;;;;17.76;54.39;96359.88;5078019;28;20179;-82
2022/07/13 01:39:03;;;;;;;0.70;0.70;;;;;;;17.78;54.45;96355.25;5078606;28;20268;-82
2022/07/13 01:41:29;;;;;;;0.90;0.60;;;;;;;17.87;54.40;96356.84;5077779;28;20195;-81
2022/07/13 01:43:56;;;;;;;1.35;0.73;;;;;;;17.88;54.22;96352.41;5077589;28;20179;-81
2022/07/13 01:46:25;;;;;;;0.80;0.80;;;;;;;17.87;54.19;96350.78;5077604;28;20219;-82
2022/07/13 01:48:51;;;;;;;0.82;0.70;;;;;;;17.87;54.01;96353.41;5094613;28;20182;-81
2022/07/13 01:51:17;;;;;;;0.80;0.80;;;;;;;17.90;54.01;96350.44;5094919;28;20199;-82
2022/07/13 01:53:42;;;;;;;3.17;0.77;;;;;;;17.91;53.91;96344.19;5095280;28;20168;-81
2022/07/13 01:56:07;;;;;;;0.80;0.80;;;;;;;17.94;53.83;96343.84;5113467;28;20577;-82
2022/07/13 01:58:32;;;;;;;0.70;0.60;;;;;;;17.90;54.09;96347.81;5078183;28;20215;-81
2022/07/13 02:00:58;;;;;;;0.85;0.65;;;;;;;17.90;53.97;96342.53;5094820;28;20286;-81
2022/07/13 02:03:24;;;;;;;2.15;0.73;;;;;;;17.87;54.21;96337.66;5095606;28;20207;-81
2022/07/13 02:05:49;;;;;;;0.85;0.60;;;;;;;17.80;54.24;96338.34;5094654;28;20184;-82
2022/07/13 02:08:14;;;;;;;0.90;0.90;;;;;;;17.80;54.20;96329.63;5078904;28;20175;-82
2022/07/13 02:10:39;;;;;;;0.60;0.60;;;;;;;17.87;54.04;96324.50;5078552;28;20590;-81
2022/07/13 02:13:07;;;;;;;2.97;0.80;;;;;;;17.92;54.11;96324.78;5114083;28;20180;-82
2022/07/13 02:15:33;;;;;;;1.15;0.70;;;;;;;17.97;54.67;96327.72;5094383;28;20245;-82
2022/07/13 02:17:58;;;;;;;1.42;0.80;;;;;;;18.07;54.40;96318.63;5095199;28;20282;-82
2022/07/13 02:20:23;;;;;;;0.63;0.63;;;;;;;18.16;54.40;96315.94;5078623;28;20178;-82
2022/07/13 02:22:49;;;;;;;1.42;0.60;;;;;;;18.21;53.97;96314.41;5078181;28;20589;-82
2022/07/13 02:25:14;;;;;;;1.42;0.70;;;;;;;18.21;54.14;96311.78;5094293;28;20194;-81
2022/07/13 02:27:43;;;;;;;0.70;0.70;;;;;;;18.31;53.95;96308.91;5078743;28;20180;-82
2022/07/13 02:30:12;;;;;;;0.70;0.70;;;;;;;18.33;53.93;96302.47;5094659;28;20198;-82
2022/07/13 02:32:38;;;;;;;1.58;0.63;;;;;;;18.34;54.17;96298.84;5078466;28;20195;-82
2022/07/13 02:35:04;;;;;;;2.08;0.88;;;;;;;18.45;53.59;96304.66;5098739;28;20182;-82
2022/07/13 02:37:29;;;;;;;0.65;0.60;;;;;;;18.42;53.66;96308.47;5098370;28;20188;-82
2022/07/13 02:39:56;;;;;;;0.82;0.70;;;;;;;18.40;53.65;96307.84;5099341;28;20191;-82
2022/07/13 02:42:22;;;;;;;0.60;0.60;;;;;;;18.35;53.78;96305.75;5096176;28;20223;-82
2022/07/13 02:44:48;;;;;;;1.63;0.80;;;;;;;18.32;53.98;96311.34;5077814;28;20236;-82
2022/07/13 02:47:13;;;;;;;1.05;0.90;;;;;;;18.31;54.21;96299.22;5061836;28;20168;-82
2022/07/13 02:49:38;;;;;;;0.60;0.60;;;;;;;18.33;54.46;96302.47;5061526;28;20184;-82
2022/07/13 02:52:04;;;;;;;1.30;0.60;;;;;;;18.36;54.20;96291.59;5095959;28;20208;-82
2022/07/13 02:54:29;;;;;;;0.60;0.60;;;;;;;18.44;53.86;96301.22;5098133;28;20215;-82
2022/07/13 02:56:58;;;;;;;0.73;0.63;;;;;;;18.41;54.26;96304.22;5098405;28;20182;-82
2022/07/13 02:59:23;;;;;;;1.83;0.85;;;;;;;18.37;54.83;96308.19;5098258;28;20204;-82
2022/07/13 03:01:48;;;;;;;1.50;1.10;;;;;;;18.39;54.41;96300.97;5098238;28;20299;-82
2022/07/13 03:04:14;;;;;;;0.93;0.70;;;;;;;18.29;54.50;96298.59;5080878;28;20256;-81
2022/07/13 03:06:39;;;;;;;0.70;0.70;;;;;;;18.27;54.61;96302.34;5081425;28;20175;-82
2022/07/13 03:09:04;;;;;;;1.25;0.88;;;;;;;18.21;54.98;96296.00;5081326;28;20199;-82
2022/07/13 03:11:29;;;;;;;0.70;0.70;;;;;;;18.20;54.95;96293.53;5081232;28;20195;-82
2022/07/13 03:13:55;;;;;;;1.70;0.75;;;;;;;18.19;55.03;96294.53;5116128;28;20180;-81
2022/07/13 03:16:20;;;;;;;0.73;0.73;;;;;;;18.16;55.33;96294.91;5080856;28;20184;-82
2022/07/13 03:18:45;;;;;;;0.88;0.75;;;;;;;18.20;54.90;96288.28;5080988;28;20648;-81
2022/07/13 03:21:11;;;;;;;0.63;0.63;;;;;;;18.20;54.96;96294.38;5097711;28;20220;-82
2022/07/13 03:23:36;;;;;;;1.60;0.65;;;;;;;18.22;55.00;96284.50;5098323;28;20180;-82
2022/07/13 03:26:02;;;;;;;0.95;0.80;;;;;;;18.24;54.91;96286.94;5065177;28;20191;-81
2022/07/13 03:28:27;;;;;;;1.65;0.70;;;;;;;18.28;54.67;96283.78;5081382;28;20167;-82
2022/07/13 03:30:53;;;;;;;0.75;0.75;;;;;;;18.24;54.38;96282.50;5097854;28;20206;-82
2022/07/13 03:33:18;;;;;;;0.60;0.60;;;;;;;18.24;54.24;96277.25;5116806;28;20172;-82
2022/07/13 03:35:43;;;;;;;0.80;0.80;;;;;;;18.25;54.52;96278.06;5080285;28;20836;-81
2022/07/13 03:38:08;;;;;;;2.58;0.80;;;;;;;18.24;54.43;96272.00;5098300;28;20183;-82
2022/07/13 03:40:34;;;;;;;1.67;0.60;;;;;;;18.19;54.24;96271.69;5080724;28;20188;-82
2022/07/13 03:42:59;;;;;;;0.93;0.82;;;;;;;18.18;54.65;96282.38;5097867;28;20192;-81
2022/07/13 03:45:25;;;;;;;2.25;0.55;;;;;;;18.21;54.52;96272.34;5080582;28;20199;-82
2022/07/13 03:47:50;;;;;;;0.63;0.63;;;;;;;18.28;54.00;96275.06;5081752;28;20183;-82
2022/07/13 03:50:15;;;;;;;2.50;0.70;;;;;;;18.24;53.97;96271.19;5098174;28;20171;-82
2022/07/13 03:52:40;;;;;;;0.73;0.73;;;;;;;18.24;54.20;96277.25;5080814;28;20195;-82
2022/07/13 03:55:07;;;;;;;0.68;0.68;;;;;;;18.33;53.75;96273.56;5079801;28;20183;-82
2022/07/13 03:57:33;;;;;;;1.05;0.80;;;;;;;18.45;53.55;96271.31;5064181;28;20249;-82
2022/07/13 03:59:58;;;;;;;0.68;0.65;;;;;;;18.51;53.14;96262.72;5097397;28;20176;-82
2022/07/13 04:02:24;;;;;;;0.60;0.60;;;;;;;19.46;50.47;96254.88;5098463;28;20208;-82
2022/07/13 04:04:49;;;;;;;1.25;0.60;;;;;;;21.36;44.78;96250.50;5079875;28;20183;-82
2022/07/13 04:07:15;;;;;;;0.50;0.50;;;;;;;22.82;40.92;96245.38;5078333;28;20559;-81
2022/07/13 04:09:40;;;;;;;1.38;0.60;;;;;;;23.00;41.04;96247.41;5113647;28;20215;-82
2022/07/13 04:12:05;;;;;;;0.40;0.40;;;;;;;24.47;37.76;96243.72;5096419;28;20218;-81
2022/07/13 04:14:31;;;;;;;1.48;0.50;;;;;;;25.63;34.97;96245.56;5078820;28;20198;-82
2022/07/13 04:16:56;;;;;;;0.75;0.50;;;;;;;25.61;34.48;96247.63;5113810;28;20195;-82
2022/07/13 04:19:21;;;;;;;2.03;0.60;;;;;;;25.95;33.65;96251.50;5079074;28;20180;-81
2022/07/13 04:21:47;;;;;;;0.93;0.47;;;;;;;27.20;31.80;96253.13;5096215;28;20203;-82
2022/07/13 04:24:12;;;;;;;0.70;0.50;;;;;;;27.31;31.10;96249.63;5093712;28;20549;-82
2022/07/13 04:26:37;;;;;;;2.80;0.40;;;;;;;28.20;29.26;96250.78;5076270;28;20211;-82
2022/07/13 04:29:02;;;;;;;0.98;0.50;;;;;;;25.59;33.50;96247.84;5096441;28;20670;-82
2022/07/13 04:31:28;;;;;;;0.63;0.60;;;;;;;25.32;33.92;96250.03;5096345;28;20204;-82
2022/07/13 04:33:53;;;;;;;2.90;0.60;;;;;;;26.13;32.40;96262.06;5100176;28;20262;-82
2022/07/13 04:36:18;;;;;;;0.63;0.63;;;;;;;26.89;31.17;96259.63;5103003;28;20176;-83
2022/07/13 04:38:44;;;;;;;0.50;0.50;;;;;;;29.21;27.85;96263.28;5114105;28;20190;-81
2022/07/13 04:41:10;;;;;;;0.50;0.50;;;;;;;29.89;27.08;96267.34;5090645;28;20207;-82
2022/07/13 04:43:36;;;;;;;1.20;0.40;;;;;;;30.33;26.38;96270.72;5087821;28;20176;-80
2022/07/13 04:46:01;;;;;;;3.10;0.63;;;;;;;30.00;26.92;96268.25;5090987;28;20180;-80
2022/07/13 04:48:26;;;;;;;0.60;0.43;;;;;;;31.10;25.31;96277.47;5101121;28;20198;-80
2022/07/13 04:50:51;;;;;;;0.68;0.50;;;;;;;31.30;24.34;96263.38;5115047;28;20687;-79
2022/07/13 04:53:17;;;;;;;0.57;0.50;;;;;;;31.35;24.36;96267.94;5114320;28;20176;-80
2022/07/13 04:55:43;;;;;;;0.52;0.40;;;;;;;32.18;23.28;96273.34;5094415;28;20176;-80
2022/07/13 04:58:08;;;;;;;0.45;0.43;;;;;;;33.84;21.41;96280.59;5095664;28;20179;-80
2022/07/13 05:00:34;;;;;;;0.50;0.50;;;;;;;33.41;21.85;96286.47;5114025;28;20172;-80
2022/07/13 05:02:59;;;;;;;1.85;0.45;;;;;;;33.29;21.54;96279.75;5095353;28;20199;-80
2022/07/13 05:05:25;;;;;;;0.47;0.47;;;;;;;34.57;20.52;96292.31;5078357;28;20566;-80
2022/07/13 05:07:50;;;;;;;0.47;0.47;;;;;;;34.03;20.61;96287.81;5078497;28;20208;-80
2022/07/13 05:10:16;;;;;;;1.77;0.47;;;;;;;32.36;23.06;96287.09;5078238;28;20179;-81
2022/07/13 05:12:42;;;;;;;0.43;0.43;;;;;;;34.11;20.91;96289.13;5078409;28;20275;-81
2022/07/13 05:15:11;;;;;;;1.65;0.60;;;;;;;35.57;19.32;96288.13;5077867;28;20639;-80
2022/07/13 05:17:36;;;;;;;1.55;0.50;;;;;;;32.41;22.69;96272.84;5095247;28;20639;-81
2022/07/13 05:20:03;;;;;;;1.73;0.60;;;;;;;31.24;24.07;96270.59;5095094;28;20191;-80
2022/07/13 05:22:28;;;;;;;1.60;0.70;;;;;;;28.35;27.99;96271.59;5094891;28;20217;-81
2022/07/13 05:24:54;;;;;;;2.22;0.70;;;;;;;28.19;27.82;96264.38;5094452;28;20644;-80
2022/07/13 05:27:19;;;;;;;0.50;0.50;;;;;;;29.38;27.00;96266.72;5077636;28;20203;-81
2022/07/13 05:29:44;;;;;;;0.90;0.60;;;;;;;30.15;25.67;96273.78;5113397;28;20547;-81
2022/07/13 05:32:10;;;;;;;2.70;0.60;;;;;;;28.74;27.94;96263.69;5078501;28;20199;-80
2022/07/13 05:34:35;;;;;;;0.50;0.50;;;;;;;28.07;28.03;96263.63;5094859;28;20225;-80
2022/07/13 05:37:00;;;;;;;0.85;0.50;;;;;;;27.63;28.55;96263.31;5095435;28;20182;-80
2022/07/13 05:39:26;;;;;;;1.42;0.80;;;;;;;26.81;30.51;96261.59;5094854;28;20183;-80
2022/07/13 05:41:51;;;;;;;2.22;0.73;;;;;;;26.91;30.03;96262.88;5077821;28;20192;-80
2022/07/13 05:44:17;;;;;;;0.85;0.50;;;;;;;27.28;29.70;96261.56;5094998;28;20215;-80
2022/07/13 05:46:42;;;;;;;1.73;0.60;;;;;;;28.23;28.73;96266.31;5094415;28;20178;-80
2022/07/13 05:49:08;;;;;;;4.28;0.60;;;;;;;30.19;25.90;96277.56;5094598;28;20179;-80
2022/07/13 05:51:33;;;;;;;0.90;0.60;;;;;;;32.74;22.68;96287.63;5076527;28;20702;-80
2022/07/13 05:53:58;;;;;;;1.60;0.60;;;;;;;33.06;21.81;96289.22;5093588;28;20248;-81
2022/07/13 05:56:24;;;;;;;2.03;0.50;;;;;;;31.05;24.67;96290.84;5093337;28;20176;-80
2022/07/13 05:58:49;;;;;;;0.88;0.60;;;;;;;31.33;24.79;96286.19;5077160;28;20183;-81
2022/07/13 06:01:14;;;;;;;1.20;0.60;;;;;;;30.17;25.32;96283.16;5076675;28;20739;-81
2022/07/13 06:03:40;;;;;;;0.57;0.50;;;;;;;28.13;28.68;96268.00;5077408;28;20184;-81
2022/07/13 06:06:05;;;;;;;1.80;0.80;;;;;;;28.26;28.79;96278.38;5094079;28;20180;-81
2022/07/13 06:08:30;;;;;;;2.45;0.60;;;;;;;27.51;30.16;96271.38;5094308;28;20624;-80
2022/07/13 06:10:56;;;;;;;0.88;0.60;;;;;;;27.00;31.12;96280.13;5113392;28;20206;-80
2022/07/13 06:13:21;;;;;;;0.80;0.77;;;;;;;26.53;31.96;96274.78;5078031;28;20170;-82
2022/07/13 06:15:46;;;;;;;1.35;0.57;;;;;;;26.81;31.74;96274.09;5077854;28;20258;-81
2022/07/13 06:18:12;;;;;;;0.73;0.60;;;;;;;26.82;31.38;96281.06;5079087;28;20659;-80
2022/07/13 06:20:37;;;;;;;0.77;0.50;;;;;;;25.97;33.84;96276.84;5113619;28;20188;-81
2022/07/13 06:23:11;;;;;;;0.63;0.63;;;;;;;26.24;33.45;96279.13;5114218;28;20233;-80
2022/07/13 06:25:41;;;;;;;0.60;0.60;;;;;;;27.14;31.73;96276.22;5070934;28;20186;-82
2022/07/13 06:28:07;;;;;;;1.85;0.85;;;;;;;27.18;31.16;96271.22;5088597;28;20188;-82
2022/07/13 06:30:33;;;;;;;2.22;0.73;;;;;;;28.12;30.69;96282.41;5089260;28;20188;-82
2022/07/13 06:32:59;;;;;;;0.60;0.60;;;;;;;27.89;30.32;96278.78;5093499;28;20176;-81
2022/07/13 06:35:25;;;;;;;0.82;0.55;;;;;;;27.88;30.00;96271.03;5060266;28;20325;-80
2022/07/13 06:37:50;;;;;;;0.70;0.70;;;;;;;28.34;29.66;96271.84;5074764;28;20176;-81
2022/07/13 06:40:16;;;;;;;3.15;0.75;;;;;;;28.26;30.12;96267.69;5091951;28;20215;-82
2022/07/13 06:42:41;;;;;;;0.60;0.55;;;;;;;26.90;31.60;96275.38;5075327;28;20204;-82
2022/07/13 06:45:07;;;;;;;1.52;0.80;;;;;;;27.14;31.90;96270.06;5092404;28;20526;-82
2022/07/13 06:47:33;;;;;;;1.40;0.70;;;;;;;26.71;32.31;96272.03;5090492;28;20183;-82
2022/07/13 06:49:58;;;;;;;1.95;0.80;;;;;;;26.74;32.40;96274.22;5100476;28;20160;-80
2022/07/13 06:52:23;;;;;;;0.77;0.70;;;;;;;27.80;30.60;96279.41;5118773;27;20225;-80
2022/07/13 06:54:49;;;;;;;2.13;0.70;;;;;;;27.98;30.65;96270.41;5117888;28;20224;-80
2022/07/13 06:57:14;;;;;;;0.73;0.52;;;;;;;27.70;30.66;96269.38;5134640;28;20247;-80
2022/07/13 06:59:39;;;;;;;0.70;0.70;;;;;;;27.90;30.46;96267.06;5100817;28;20202;-80
2022/07/13 07:02:04;;;;;;;0.70;0.70;;;;;;;28.12;30.37;96264.53;5117902;28;20199;-81
2022/07/13 07:04:30;;;;;;;3.10;0.70;;;;;;;28.29;30.18;96267.25;5135519;28;20232;-81
2022/07/13 07:06:56;;;;;;;1.55;0.70;;;;;;;28.12;29.65;96261.06;5131036;28;20640;-81
2022/07/13 07:09:22;;;;;;;1.63;0.60;;;;;;;28.55;28.76;96262.31;5078114;28;20184;-84
2022/07/13 07:11:48;;;;;;;0.70;0.70;;;;;;;27.90;30.24;96271.59;5093951;28;20338;-84
2022/07/13 07:14:13;;;;;;;0.85;0.50;;;;;;;28.39;28.67;96264.75;5095079;28;20537;-81
2022/07/13 07:16:38;;;;;;;1.55;0.60;;;;;;;27.15;30.71;96266.34;5095893;28;20192;-83
2022/07/13 07:19:03;;;;;;;2.92;1.00;;;;;;;27.69;30.38;96281.09;5080223;28;20199;-80
2022/07/13 07:21:29;;;;;;;1.02;0.50;;;;;;;27.56;30.12;96270.66;5081933;28;20273;-82
2022/07/13 07:23:55;;;;;;;0.75;0.73;;;;;;;27.37;29.82;96268.16;5082369;28;20538;-83
2022/07/13 07:26:20;;;;;;;0.65;0.50;;;;;;;27.96;29.90;96269.84;5082122;28;20201;-80
2022/07/13 07:28:45;;;;;;;1.63;0.90;;;;;;;28.36;28.64;96269.75;5081858;28;20218;-83
2022/07/13 07:31:11;;;;;;;0.60;0.60;;;;;;;27.74;29.43;96267.84;5099762;28;20196;-81
2022/07/13 07:33:36;;;;;;;1.38;0.50;;;;;;;28.23;28.56;96270.84;5099056;28;20194;-80
2022/07/13 07:36:02;;;;;;;0.70;0.60;;;;;;;27.75;30.21;96269.47;5098147;28;20179;-81
2022/07/13 07:38:27;;;;;;;0.60;0.60;;;;;;;28.22;29.06;96274.56;5116501;28;20259;-80
2022/07/13 07:40:52;;;;;;;1.50;0.57;;;;;;;27.99;29.17;96274.69;5097966;28;20836;-81
2022/07/13 07:43:17;;;;;;;0.50;0.50;;;;;;;27.76;29.80;96273.75;5098184;28;20207;-81
2022/07/13 07:45:43;;;;;;;2.28;0.70;;;;;;;27.50;30.33;96279.63;5097246;28;20209;-80
2022/07/13 07:48:08;;;;;;;0.52;0.50;;;;;;;28.19;28.31;96278.53;5081336;28;20545;-81
2022/07/13 07:50:33;;;;;;;0.82;0.60;;;;;;;27.47;29.59;96275.53;5097825;28;20692;-81
2022/07/13 07:52:59;;;;;;;0.60;0.60;;;;;;;27.83;28.33;96277.09;5098882;28;20176;-84
2022/07/13 07:55:24;;;;;;;0.60;0.50;;;;;;;27.82;27.94;96278.13;5081159;28;20180;-82
2022/07/13 07:57:50;;;;;;;0.63;0.63;;;;;;;28.00;28.32;96278.97;5079649;28;20180;-81
2022/07/13 08:00:16;;;;;;;1.42;0.70;;;;;;;28.17;28.26;96274.47;5097034;28;20655;-82
2022/07/13 08:02:41;;;;;;;0.70;0.57;;;;;;;28.01;29.13;96278.75;5114759;28;20265;-81
2022/07/13 08:05:08;;;;;;;2.63;0.77;;;;;;;28.78;27.74;96276.28;5096386;28;20174;-82
2022/07/13 08:07:33;;;;;;;1.95;0.50;;;;;;;28.82;27.06;96281.97;5099469;27;20184;-82
2022/07/13 08:09:59;;;;;;;1.50;0.70;;;;;;;29.00;26.88;96276.41;5104243;28;20172;-81
2022/07/13 08:12:24;;;;;;;0.47;0.47;;;;;;;29.31;26.28;96280.28;5097742;28;20199;-81
2022/07/13 08:14:49;;;;;;;1.42;0.70;;;;;;;28.86;27.56;96277.75;5080052;28;20191;-81
2022/07/13 08:17:15;;;;;;;0.90;0.50;;;;;;;29.71;25.08;96283.72;5097928;28;20199;-83
2022/07/13 08:19:40;;;;;;;0.95;0.65;;;;;;;29.23;25.11;96278.03;5098117;28;20207;-82
2022/07/13 08:22:05;;;;;;;0.68;0.52;;;;;;;28.81;26.43;96274.22;5080526;28;20731;-82
2022/07/13 08:24:30;;;;;;;0.60;0.60;;;;;;;28.61;25.75;96280.03;5096634;28;20187;-83
2022/07/13 08:26:57;;;;;;;1.83;0.50;;;;;;;27.60;27.01;96282.47;5080436;28;20966;-82
2022/07/13 08:29:22;;;;;;;1.67;0.50;;;;;;;28.09;26.42;96274.88;5097429;28;20175;-82
2022/07/13 08:31:47;;;;;;;2.20;0.73;;;;;;;27.58;26.47;96272.03;5086259;28;20629;-82
2022/07/13 08:39:44;;;;;;;0.60;0.60;;;;;;;27.57;27.71;96265.09;5056338;28;20599;-84
2022/07/13 08:42:12;;;;;;;1.05;0.50;;;;;;;28.06;26.03;96264.69;5074028;28;20211;-81
2022/07/13 08:44:37;;;;;;;0.98;0.60;;;;;;;27.76;25.73;96260.41;5056823;28;20242;-81
2022/07/13 08:47:05;;;;;;;1.02;0.60;;;;;;;27.79;26.09;96259.13;5074747;28;20223;-82
2022/07/13 08:49:30;;;;;;;1.70;0.70;;;;;;;28.05;25.91;96266.53;5062134;28;20298;-82
2022/07/13 08:51:57;;;;;;;2.03;0.60;;;;;;;28.24;25.51;96269.78;5077765;28;20760;-82
2022/07/13 08:54:22;;;;;;;1.25;0.60;;;;;;;28.07;26.22;96263.63;5093631;28;20179;-82
2022/07/13 08:56:48;;;;;;;0.80;0.60;;;;;;;28.54;24.75;96263.38;5093916;28;20179;-82
2022/07/13 08:59:13;;;;;;;1.60;0.65;;;;;;;28.72;24.91;96268.47;5077870;28;20230;-83
2022/07/13 09:01:38;;;;;;;0.68;0.55;;;;;;;28.59;25.12;96272.25;5074736;28;20257;-84
2022/07/13 09:04:08;;;;;;;0.95;0.50;;;;;;;28.50;23.72;96263.03;5064549;28;20179;-84
2022/07/13 09:06:45;;;;;;;0.68;0.57;;;;;;;28.83;22.79;96272.09;5079079;28;20161;-82
2022/07/13 09:09:35;;;;;;;2.58;0.50;;;;;;;28.75;22.53;96276.00;5072732;28;20180;-83
2022/07/13 09:12:16;;;;;;;0.88;0.40;;;;;;;28.65;22.40;96270.50;5062084;28;20695;-83
2022/07/13 09:14:43;;;;;;;0.50;0.50;;;;;;;28.82;23.06;96276.63;5076699;28;20643;-84
2022/07/13 09:17:10;;;;;;;0.50;0.40;;;;;;;29.09;20.95;96270.63;5079118;28;20277;-84
2022/07/13 09:19:38;;;;;;;0.60;0.47;;;;;;;29.22;20.96;96271.06;5061946;28;20189;-83
2022/07/13 09:22:13;;;;;;;0.95;0.77;;;;;;;29.37;21.85;96267.78;5060870;28;20564;-83
2022/07/13 09:24:45;;;;;;;1.30;0.32;;;;;;;29.06;19.08;96255.84;5062299;28;20200;-85
2022/07/13 09:27:11;;;;;;;0.85;0.85;;;;;;;29.40;18.54;96261.13;5079064;28;20552;-84
2022/07/13 09:29:36;;;;;;;0.55;0.50;;;;;;;29.20;18.52;96262.47;5077618;28;20172;-83
2022/07/13 09:32:06;;;;;;;0.50;0.40;;;;;;;29.42;17.53;96265.19;5059030;28;20277;-84
2022/07/13 09:34:50;;;;;;;1.25;0.50;;;;;;;29.91;17.99;96267.88;5076303;28;20173;-83
2022/07/13 09:37:16;;;;;;;0.20;0.20;;;;;;;29.28;18.26;96261.25;5077760;28;20209;-83
2022/07/13 09:40:03;;;;;;;0.40;0.40;;;;;;;29.49;19.84;96265.81;5077740;28;20172;-83
2022/07/13 09:42:29;;;;;;;0.70;0.38;;;;;;;29.85;18.70;96275.03;5058803;28;20353;-84
2022/07/13 09:48:12;;;;;;;0.60;0.50;;;;;;;29.57;19.62;96275.25;5012402;28;20178;-81
2022/07/13 09:50:39;;;;;;;0.63;0.30;;;;;;;30.10;17.45;96277.19;4996004;28;20186;-84
2022/07/13 09:53:23;;;;;;;1.15;0.50;;;;;;;30.17;16.85;96277.00;4995572;28;20191;-84
2022/07/13 09:55:51;;;;;;;0.65;0.40;;;;;;;30.11;17.49;96273.47;4997627;28;20242;-84
2022/07/13 09:58:19;;;;;;;0.52;0.40;;;;;;;29.64;19.87;96283.09;4980954;28;20190;-83
2022/07/13 10:00:44;;;;;;;0.65;0.55;;;;;;;30.14;18.37;96286.38;4994768;28;20225;-83
2022/07/13 10:03:11;;;;;;;1.08;0.40;;;;;;;30.34;16.89;96282.25;5011200;28;20619;-83
2022/07/13 10:05:37;;;;;;;0.68;0.38;;;;;;;30.16;16.07;96278.88;5009896;28;20198;-83
2022/07/13 10:08:02;;;;;;;0.30;0.30;;;;;;;30.78;17.36;96268.69;4978219;28;20179;-83
2022/07/13 10:10:28;;;;;;;0.40;0.40;;;;;;;30.59;16.84;96277.09;5009398;28;20191;-84
2022/07/13 10:12:54;;;;;;;1.23;0.40;;;;;;;29.96;17.26;96267.94;5010941;28;20272;-83
2022/07/13 10:15:20;;;;;;;0.43;0.30;;;;;;;29.83;16.36;96262.97;4993734;28;20179;-83
2022/07/13 10:17:47;;;;;;;0.68;0.50;;;;;;;29.64;16.47;96259.03;5016299;28;20175;-84
2022/07/13 10:20:20;;;;;;;0.30;0.30;;;;;;;30.17;17.56;96267.09;5075939;28;20233;-83
2022/07/13 10:22:48;;;;;;;0.32;0.32;;;;;;;30.60;15.31;96267.19;5076350;28;20210;-84
2022/07/13 10:25:13;;;;;;;1.48;0.40;;;;;;;30.98;13.72;96269.63;5075442;28;20188;-83
2022/07/13 10:27:41;;;;;;;1.00;0.45;;;;;;;31.21;13.86;96255.03;5076467;28;20176;-84
2022/07/13 10:30:10;;;;;;;0.70;0.30;;;;;;;31.54;14.58;96258.38;5059897;28;20172;-84
2022/07/13 10:32:40;;;;;;;0.40;0.40;;;;;;;30.87;15.60;96269.81;5087492;28;20192;-83
2022/07/13 10:35:10;;;;;;;0.95;0.30;;;;;;;30.71;14.24;96255.50;5080791;28;20191;-86
2022/07/13 10:38:00;;;;;;;2.38;0.40;;;;;;;31.65;15.59;96256.53;5081245;28;20173;-84
2022/07/13 10:40:37;;;;;;;0.30;0.30;;;;;;;31.71;16.47;96258.97;5099078;28;20164;-84
2022/07/13 10:43:05;;;;;;;0.38;0.30;;;;;;;31.91;16.29;96262.81;5074269;28;20211;-83
2022/07/13 10:45:34;;;;;;;0.65;0.30;;;;;;;32.05;15.60;96253.16;5075507;28;20188;-84
2022/07/13 10:48:00;;;;;;;2.08;0.40;;;;;;;31.85;16.34;96259.31;5075526;28;20199;-84
2022/07/13 10:50:34;;;;;;;1.42;0.38;;;;;;;32.09;16.22;96256.94;5076004;28;20181;-84
2022/07/13 10:53:00;;;;;;;1.55;0.30;;;;;;;32.29;14.83;96248.88;5077363;28;20168;-83
2022/07/13 10:55:33;;;;;;;2.75;0.40;;;;;;;31.35;14.79;96249.16;5061439;28;20556;-83
2022/07/13 10:58:00;;;;;;;0.30;0.30;;;;;;;31.92;14.41;96246.44;5078400;28;20172;-83
2022/07/13 11:00:43;;;;;;;0.52;0.30;;;;;;;31.58;14.15;96243.38;5081447;28;20211;-84
2022/07/13 11:03:32;;;;;;;0.40;0.40;;;;;;;31.28;16.05;96246.75;5063669;28;20627;-85
2022/07/13 11:06:15;;;;;;;0.60;0.50;;;;;;;30.79;19.44;96243.50;5062895;28;20176;-84
2022/07/13 11:08:41;;;;;;;5.00;0.88;;;;;;;30.73;19.83;96235.41;5079526;28;20604;-84
2022/07/13 11:11:13;;;;;;;1.80;0.60;;;;;;;30.68;19.74;96240.75;5061714;28;20212;-83
2022/07/13 11:13:39;;;;;;;0.75;0.75;;;;;;;30.73;20.46;96229.22;5079460;28;20592;-84
2022/07/13 11:16:08;;;;;;;0.77;0.70;;;;;;;30.60;18.99;96237.72;5079709;28;20172;-84
2022/07/13 11:18:38;;;;;;;2.15;0.50;;;;;;;30.88;17.68;96233.88;5063200;28;20192;-84
2022/07/13 11:21:14;;;;;;;0.80;0.50;;;;;;;31.39;16.33;96226.94;5079711;28;20313;-84
2022/07/13 11:26:55;;;;;;;0.88;0.57;;;;;;;30.66;18.10;96226.81;5114933;28;20194;-84
2022/07/13 11:29:48;;;;;;;1.38;0.75;;;;;;;31.06;20.41;96219.25;5079638;28;20633;-84
2022/07/13 11:32:14;;;;;;;1.25;0.70;;;;;;;30.40;22.02;96220.41;5080586;28;20200;-84
2022/07/13 11:34:41;;;;;;;3.30;0.90;;;;;;;30.66;22.42;96217.94;5096402;28;20373;-84
2022/07/13 11:37:07;;;;;;;3.55;0.82;;;;;;;30.54;19.86;96220.78;5079250;28;20606;-84
2022/07/13 11:39:36;;;;;;;1.33;0.60;;;;;;;30.90;21.51;96210.31;5094788;28;20176;-84
2022/07/13 11:42:07;;;;;;;2.17;1.00;;;;;;;31.01;21.89;96204.75;5071893;28;20201;-83
2022/07/13 11:44:33;;;;;;;2.55;0.88;;;;;;;30.00;23.00;96212.00;5075688;28;20707;-83